createdAt,value
2018-07-20T00:05:02.325Z,99658.92
2018-07-20T00:10:07.014Z,99658.21
2018-07-20T00:15:11.784Z,99653.28
2018-07-20T00:20:16.614Z,99652.88
2018-07-20T00:25:21.364Z,99653.66
2018-07-20T00:30:26.001Z,99646.95
2018-07-20T00:35:30.724Z,99650.34
2018-07-20T00:40:35.356Z,99643.63
2018-07-20T00:45:40.128Z,99642.08
2018-07-20T00:50:44.560Z,99635.49
2018-07-20T00:55:49.185Z,99634.97
2018-07-20T01:00:53.854Z,99635.22
2018-07-20T01:05:58.570Z,99631.66
2018-07-20T01:11:03.343Z,99626.00
2018-07-20T01:16:08.125Z,99629.64
2018-07-20T01:21:12.820Z,99620.59
2018-07-20T01:26:17.530Z,99626.50
2018-07-20T01:31:22.268Z,99622.64
2018-07-20T01:36:27.168Z,99621.73
2018-07-20T01:41:31.461Z,99633.10
2018-07-20T01:46:36.138Z,99626.80
2018-07-20T01:51:40.816Z,99631.53
2018-07-20T01:56:45.644Z,99628.82
2018-07-20T02:01:50.334Z,99623.66
2018-07-20T02:06:54.976Z,99628.44
2018-07-20T02:11:59.782Z,99630.86
2018-07-20T02:17:04.476Z,99632.16
2018-07-20T02:22:09.187Z,99633.92
2018-07-20T02:27:13.908Z,99638.89
2018-07-20T02:32:18.548Z,99634.81
2018-07-20T02:37:23.413Z,99634.55
2018-07-20T02:42:28.086Z,99631.25
2018-07-20T02:47:32.740Z,99635.56
2018-07-20T02:52:37.427Z,99630.72
2018-07-20T02:57:42.116Z,99634.91
2018-07-20T03:02:46.804Z,99632.33
2018-07-20T03:07:51.581Z,99634.94
2018-07-20T03:12:56.235Z,99635.94
2018-07-20T03:18:00.938Z,99633.52
2018-07-20T03:23:05.689Z,99627.77
2018-07-20T03:28:10.295Z,99623.67
2018-07-20T03:33:14.951Z,99631.41
2018-07-20T03:38:19.862Z,99621.06
2018-07-20T03:43:24.504Z,99618.95
2018-07-20T03:48:29.326Z,99619.92
2018-07-20T03:53:34.043Z,99614.66
2018-07-20T03:58:38.745Z,99608.37
2018-07-20T04:03:43.501Z,99605.63
2018-07-20T04:08:47.942Z,99595.76
2018-07-20T04:13:52.685Z,99595.40
2018-07-20T04:18:57.485Z,99597.63
2018-07-20T04:24:02.461Z,99591.72
2018-07-20T04:29:07.154Z,99592.83
2018-07-20T04:34:11.780Z,99592.67
2018-07-20T04:39:16.497Z,99593.37
2018-07-20T04:44:21.352Z,99602.61
2018-07-20T04:49:26.187Z,99597.25
2018-07-20T04:54:30.972Z,99594.52
2018-07-20T04:59:35.683Z,99590.95
2018-07-20T05:04:40.575Z,99586.85
2018-07-20T05:09:45.327Z,99589.05
2018-07-20T05:14:49.990Z,99581.28
2018-07-20T05:19:54.651Z,99582.21
2018-07-20T05:24:59.451Z,99582.81
2018-07-20T05:30:04.904Z,99582.13
2018-07-20T05:35:09.685Z,99577.84
2018-07-20T05:40:14.460Z,99569.28
2018-07-20T05:45:19.165Z,99565.33
2018-07-20T05:50:23.857Z,99565.92
2018-07-20T05:55:28.599Z,99566.84
2018-07-20T06:00:33.387Z,99562.73
2018-07-20T06:05:38.128Z,99560.91
2018-07-20T06:10:42.821Z,99561.73
2018-07-20T06:15:47.714Z,99564.06
2018-07-20T06:20:52.456Z,99559.77
2018-07-20T06:25:57.190Z,99560.30
2018-07-20T06:31:02.117Z,99551.45
2018-07-20T06:36:06.788Z,99555.84
2018-07-20T06:41:11.515Z,99555.45
2018-07-20T06:46:16.291Z,99549.41
2018-07-20T06:51:21.128Z,99552.22
2018-07-20T06:56:25.905Z,99548.91
2018-07-20T07:01:30.955Z,99543.28
2018-07-20T07:06:35.300Z,99548.64
2018-07-20T07:11:40.651Z,99545.05
2018-07-20T07:16:45.409Z,99551.59
2018-07-20T07:21:50.148Z,99547.80
2018-07-20T07:26:54.860Z,99549.33
2018-07-20T07:31:59.648Z,99540.43
2018-07-20T07:37:04.471Z,99546.25
2018-07-20T07:42:09.281Z,99541.22
2018-07-20T07:47:14.191Z,99542.05
2018-07-20T07:52:18.862Z,99535.34
2018-07-20T07:57:23.538Z,99532.72
2018-07-20T08:02:28.341Z,99530.94
2018-07-20T08:07:33.084Z,99523.59
2018-07-20T08:12:37.745Z,99525.09
2018-07-20T08:17:42.566Z,99528.43
2018-07-20T08:22:47.324Z,99513.01
2018-07-20T08:27:52.101Z,99514.34
2018-07-20T08:32:56.759Z,99516.98
2018-07-20T08:38:01.470Z,99516.03
2018-07-20T08:43:06.380Z,99507.52
2018-07-20T08:48:11.156Z,99503.19
2018-07-20T08:53:15.839Z,99500.88
2018-07-20T08:58:20.639Z,99504.16
2018-07-20T09:03:25.331Z,99495.82
2018-07-20T09:08:30.052Z,99486.89
2018-07-20T09:13:34.797Z,99485.80
2018-07-20T09:18:39.516Z,99481.28
2018-07-20T09:23:44.344Z,99481.77
2018-07-20T09:28:49.128Z,99475.41
2018-07-20T09:33:53.847Z,99466.69
2018-07-20T09:38:58.636Z,99469.58
2018-07-20T09:44:03.330Z,99467.67
2018-07-20T09:49:08.047Z,99463.02
2018-07-20T09:54:12.952Z,99466.24
2018-07-20T09:59:17.696Z,99459.46
2018-07-20T10:04:22.523Z,99459.70
2018-07-20T10:09:27.270Z,99451.63
2018-07-20T10:14:31.962Z,99445.73
2018-07-20T10:19:36.654Z,99440.66
2018-07-20T10:24:41.616Z,99437.50
2018-07-20T10:29:46.302Z,99436.73
2018-07-20T10:34:50.972Z,99436.40
2018-07-20T10:39:55.656Z,99427.38
2018-07-20T10:45:00.563Z,99422.48
2018-07-20T10:50:06.349Z,99413.29
2018-07-20T10:55:11.153Z,99410.70
2018-07-20T11:00:16.052Z,99399.61
2018-07-20T11:05:20.805Z,99391.47
2018-07-20T11:10:25.514Z,99390.67
2018-07-20T11:15:30.182Z,99388.05
2018-07-20T11:20:35.004Z,99380.86
2018-07-20T11:25:39.759Z,99383.98
2018-07-20T11:30:44.440Z,99373.37
2018-07-20T11:35:49.188Z,99368.02
2018-07-20T11:40:53.974Z,99361.87
2018-07-20T11:45:58.751Z,99354.71
2018-07-20T11:51:03.539Z,99344.05
2018-07-20T11:56:08.264Z,99341.27
2018-07-20T12:01:13.080Z,99341.16
2018-07-20T12:06:17.877Z,99324.66
2018-07-20T12:11:22.672Z,99313.02
2018-07-20T12:16:27.398Z,99314.91
2018-07-20T12:21:32.126Z,99311.19
2018-07-20T12:26:36.845Z,99300.61
2018-07-20T12:31:41.756Z,99299.86
2018-07-20T12:36:46.763Z,99291.89
2018-07-20T12:41:51.470Z,99294.72
2018-07-20T12:46:57.222Z,99290.98
2018-07-20T12:52:02.021Z,99291.30
2018-07-20T12:57:09.625Z,99278.38
2018-07-20T13:02:14.376Z,99279.52
2018-07-20T13:12:38.012Z,99266.45
2018-07-20T13:17:42.782Z,99253.37
2018-07-20T13:22:47.674Z,99247.02
2018-07-20T13:27:52.363Z,99239.52
2018-07-20T13:32:57.179Z,99241.52
2018-07-20T13:38:01.876Z,99241.31
2018-07-20T13:43:06.848Z,99231.20
2018-07-20T13:48:11.660Z,99228.75
2018-07-20T13:53:16.356Z,99224.50
2018-07-20T13:58:21.062Z,99211.14
2018-07-20T14:03:25.909Z,99205.88
2018-07-20T14:08:30.675Z,99198.14
2018-07-20T14:13:35.519Z,99194.77
2018-07-20T14:18:40.364Z,99195.53
2018-07-20T14:23:45.161Z,99195.69
2018-07-20T14:28:50.036Z,99195.98
2018-07-20T14:33:54.879Z,99182.22
2018-07-20T14:38:59.689Z,99181.47
2018-07-20T14:44:04.593Z,99169.45
2018-07-20T14:49:09.357Z,99168.26
2018-07-20T14:54:14.112Z,99169.58
2018-07-20T14:59:18.794Z,99164.09
2018-07-20T15:04:23.465Z,99155.84
2018-07-20T15:09:29.279Z,99160.31
2018-07-20T15:14:34.098Z,99152.81
2018-07-20T15:19:39.053Z,99147.92
2018-07-20T15:24:44.130Z,99144.61
2018-07-20T15:29:53.460Z,99136.30
2018-07-20T15:34:58.182Z,99133.34
2018-07-20T15:40:02.956Z,99125.25
2018-07-20T15:45:07.955Z,99120.06
2018-07-20T15:50:12.741Z,99110.03
2018-07-20T15:55:17.503Z,99109.77
2018-07-20T16:00:22.258Z,99103.03
2018-07-20T16:05:27.071Z,99100.55
2018-07-20T16:10:31.750Z,99102.73
2018-07-20T16:15:36.437Z,99090.20
2018-07-20T16:20:41.217Z,99090.69
2018-07-20T16:25:46.175Z,99075.39
2018-07-20T16:30:50.983Z,99075.38
2018-07-20T16:35:55.801Z,99070.25
2018-07-20T16:41:00.599Z,99070.23
2018-07-20T16:46:05.328Z,99061.28
2018-07-20T16:51:10.240Z,99061.25
2018-07-20T16:56:14.886Z,99068.77
2018-07-20T17:01:19.740Z,99056.11
2018-07-20T17:06:24.598Z,99061.37
2018-07-20T17:11:29.429Z,99060.31
2018-07-20T17:16:34.286Z,99062.61
2018-07-20T17:21:39.056Z,99065.70
2018-07-20T17:26:43.864Z,99049.13
2018-07-20T17:31:48.576Z,99058.53
2018-07-20T17:36:53.288Z,99066.19
2018-07-20T17:41:58.122Z,99066.91
2018-07-20T17:47:02.954Z,99079.63
2018-07-20T17:52:07.847Z,99075.80
2018-07-20T17:57:12.842Z,99068.66
2018-07-20T18:02:17.760Z,99069.61
2018-07-20T18:07:22.601Z,99066.67
2018-07-20T18:12:27.532Z,99070.20
2018-07-20T18:17:32.368Z,99073.02
2018-07-20T18:22:37.204Z,99082.27
2018-07-20T18:27:42.094Z,99075.11
2018-07-20T18:32:46.948Z,99077.33
2018-07-20T18:37:51.720Z,99072.81
2018-07-20T18:42:56.585Z,99075.60
2018-07-20T18:48:01.354Z,99078.80
2018-07-20T18:53:06.152Z,99080.72
2018-07-20T18:58:11.004Z,99080.42
2018-07-20T19:03:15.747Z,99075.88
2018-07-20T19:08:20.492Z,99084.78
2018-07-20T19:13:25.264Z,99079.98
2018-07-20T19:18:30.142Z,99077.88
2018-07-20T19:23:34.913Z,99076.16
2018-07-20T19:28:39.800Z,99074.78
2018-07-20T19:33:44.465Z,99077.60
2018-07-20T19:38:49.305Z,99073.63
2018-07-20T19:43:54.004Z,99075.59
2018-07-20T19:48:58.802Z,99075.99
2018-07-20T19:54:03.808Z,99075.20
2018-07-20T19:59:08.614Z,99078.02
2018-07-20T20:04:13.416Z,99083.38
2018-07-20T20:09:18.134Z,99077.53
2018-07-20T20:14:22.966Z,99087.81
2018-07-20T20:19:27.710Z,99085.09
2018-07-20T20:24:32.754Z,99089.33
2018-07-20T20:29:37.544Z,99087.06
2018-07-20T20:34:42.451Z,99097.48
2018-07-20T20:39:47.206Z,99106.29
2018-07-20T20:44:51.996Z,99110.19
2018-07-20T20:49:56.987Z,99113.05
2018-07-20T20:55:01.902Z,99119.38
2018-07-20T21:00:07.785Z,99122.03
2018-07-20T21:05:12.580Z,99121.63
2018-07-20T21:10:17.275Z,99118.45
2018-07-20T21:15:22.081Z,99112.89
2018-07-20T21:20:26.879Z,99106.78
2018-07-20T21:25:31.659Z,99100.63
2018-07-20T21:30:36.435Z,99098.38
2018-07-20T21:35:41.192Z,99103.03
2018-07-20T21:40:45.941Z,99107.80
2018-07-20T21:45:50.660Z,99103.07
2018-07-20T21:50:55.484Z,99104.58
2018-07-20T21:56:00.258Z,99102.98
2018-07-20T22:01:05.136Z,99101.66
2018-07-20T22:06:09.955Z,99107.32
2018-07-20T22:11:14.692Z,99102.58
2018-07-20T22:16:19.613Z,99091.04
2018-07-20T22:21:24.431Z,99093.22
2018-07-20T22:26:29.115Z,99093.33
2018-07-20T22:31:33.815Z,99093.83
2018-07-20T22:36:38.618Z,99088.20
2018-07-20T22:41:43.347Z,99079.63
2018-07-20T22:46:47.693Z,99081.14
2018-07-20T22:51:52.456Z,99087.98
2018-07-20T22:56:57.127Z,99084.04
2018-07-20T23:02:01.817Z,99084.88
2018-07-20T23:07:06.358Z,99074.20
2018-07-20T23:12:11.407Z,99070.27
2018-07-20T23:17:16.178Z,99076.58
2018-07-20T23:22:20.941Z,99070.61
2018-07-20T23:27:25.695Z,99070.73
2018-07-20T23:32:31.930Z,99075.65
2018-07-20T23:37:36.757Z,99071.47
2018-07-20T23:42:41.549Z,99072.25
2018-07-20T23:47:46.273Z,99079.89
2018-07-20T23:52:51.000Z,99066.41
2018-07-20T23:57:55.288Z,99064.25
